TimeCST,TemperatureF,Dew PointF,Humidity,Sea Level PressureIn,VisibilityMPH,Wind Direction,Wind SpeedMPH,Gust SpeedMPH,PrecipitationIn,Events,Conditions,WindDirDegrees,DateUTC
12:48 AM,39.2,30.2,70,29.74,10.0,ESE,5.8,-,N/A,,Mostly Cloudy,110,2014-02-17 06:48:00
12:53 AM,39.9,30.9,70,29.76,10.0,ESE,4.6,-,N/A,,Mostly Cloudy,120,2014-02-17 06:53:00
1:53 AM,42.1,32.0,67,29.76,10.0,SE,4.6,-,N/A,,Overcast,130,2014-02-17 07:53:00
2:53 AM,37.9,32.0,79,29.80,10.0,WNW,8.1,-,N/A,,Mostly Cloudy,290,2014-02-17 08:53:00
3:01 AM,37.0,30.9,79,29.79,10.0,WNW,5.8,-,N/A,,Scattered Clouds,300,2014-02-17 09:01:00
3:53 AM,33.1,28.9,85,29.80,10.0,West,5.8,-,N/A,,Clear,280,2014-02-17 09:53:00
4:53 AM,42.1,30.9,65,29.85,10.0,WNW,21.9,27.6,N/A,,Clear,290,2014-02-17 10:53:00
5:53 AM,43.0,33.1,68,29.92,10.0,NW,32.2,43.7,0.00,Rain,Light Rain,320,2014-02-17 11:53:00
6:53 AM,41.0,32.0,70,29.99,10.0,NW,21.9,-,0.00,,Clear,310,2014-02-17 12:53:00
7:53 AM,42.1,32.0,67,30.03,10.0,NW,19.6,-,N/A,,Clear,310,2014-02-17 13:53:00
8:53 AM,44.1,33.1,65,30.06,10.0,NW,16.1,-,N/A,,Clear,310,2014-02-17 14:53:00
9:53 AM,48.9,34.0,56,30.07,10.0,NW,21.9,-,N/A,,Clear,310,2014-02-17 15:53:00
10:53 AM,53.1,32.0,45,30.08,10.0,WNW,18.4,-,N/A,,Clear,300,2014-02-17 16:53:00
11:53 AM,57.0,28.0,33,30.08,10.0,NW,16.1,-,N/A,,Clear,310,2014-02-17 17:53:00
12:53 PM,57.9,23.0,26,30.04,10.0,NNW,18.4,-,N/A,,Clear,330,2014-02-17 18:53:00
1:53 PM,61.0,21.9,22,30.04,10.0,WNW,18.4,-,N/A,,Clear,300,2014-02-17 19:53:00
2:53 PM,61.0,19.0,20,30.04,10.0,WNW,15.0,-,N/A,,Clear,290,2014-02-17 20:53:00
3:53 PM,62.1,17.1,18,30.03,10.0,West,13.8,-,N/A,,Clear,260,2014-02-17 21:53:00
4:53 PM,61.0,19.9,21,30.02,10.0,WSW,13.8,-,N/A,,Clear,240,2014-02-17 22:53:00
5:53 PM,51.1,28.0,41,30.02,10.0,SSW,10.4,-,N/A,,Clear,210,2014-02-17 23:53:00
6:53 PM,46.0,28.0,50,30.02,10.0,SSW,10.4,-,N/A,,Clear,200,2014-02-18 00:53:00
7:53 PM,46.0,27.0,47,30.01,10.0,SSW,11.5,-,N/A,,Clear,210,2014-02-18 01:53:00
8:53 PM,46.0,27.0,47,29.99,10.0,SSW,12.7,-,N/A,,Clear,200,2014-02-18 02:53:00
9:53 PM,45.0,27.0,49,29.99,10.0,SSW,15.0,-,N/A,,Clear,200,2014-02-18 03:53:00
10:53 PM,45.0,26.1,48,29.96,10.0,South,8.1,-,N/A,,Clear,190,2014-02-18 04:53:00
11:53 PM,45.0,26.1,48,29.94,10.0,South,13.8,-,N/A,,Clear,190,2014-02-18 05:53:00